createdAt,value
2023-02-05T00:00:12.608Z,-1.95
2023-02-05T00:03:18.952Z,-2.13
2023-02-05T00:06:25.069Z,-1.73
2023-02-05T00:09:32.835Z,-1.56
2023-02-05T00:12:39.904Z,-1.73
2023-02-05T00:15:46.243Z,-1.74
2023-02-05T00:18:53.098Z,-1.91
2023-02-05T00:21:59.002Z,-1.90
2023-02-05T00:25:07.604Z,-1.95
2023-02-05T00:28:13.621Z,-1.91
2023-02-05T00:31:22.782Z,-1.80
2023-02-05T00:34:29.412Z,-1.75
2023-02-05T00:37:35.445Z,-1.85
2023-02-05T00:40:44.791Z,-1.94
2023-02-05T00:43:51.125Z,-1.85
2023-02-05T00:46:57.094Z,-2.07
2023-02-05T00:50:03.044Z,-2.16
2023-02-05T00:53:09.409Z,-2.26
2023-02-05T00:56:17.035Z,-2.26
2023-02-05T00:59:23.990Z,-2.06
2023-02-05T01:02:30.479Z,-2.27
2023-02-05T01:05:37.975Z,-2.30
2023-02-05T01:08:44.171Z,-1.91
2023-02-05T01:11:51.742Z,-2.24
2023-02-05T01:14:57.773Z,-2.28
2023-02-05T01:18:04.172Z,-2.27
2023-02-05T01:21:10.496Z,-2.29
2023-02-05T01:24:16.979Z,-2.33
2023-02-05T01:27:24.589Z,-2.39
2023-02-05T01:30:30.831Z,-2.28
2023-02-05T01:33:37.137Z,-2.23
2023-02-05T01:36:43.174Z,-2.41
2023-02-05T01:39:49.288Z,-2.31
2023-02-05T01:42:56.981Z,-2.45
2023-02-05T01:46:20.579Z,-2.42
2023-02-05T01:49:31.308Z,-2.38
2023-02-05T01:52:37.614Z,-2.44
2023-02-05T01:55:49.445Z,-2.29
2023-02-05T01:59:00.330Z,-2.55
2023-02-05T02:02:07.770Z,-2.36
2023-02-05T02:05:16.760Z,-2.42
2023-02-05T02:08:23.432Z,-2.54
2023-02-05T02:11:33.480Z,-2.16
2023-02-05T02:14:42.956Z,-2.41
2023-02-05T02:17:52.840Z,-2.29
2023-02-05T02:21:59.755Z,-2.62
2023-02-05T02:25:50.569Z,-2.71
2023-02-05T02:29:02.013Z,-2.70
2023-02-05T02:32:17.340Z,-2.63
2023-02-05T02:35:28.926Z,-2.79
2023-02-05T02:38:38.868Z,-2.63
2023-02-05T02:41:52.244Z,-2.69
2023-02-05T02:45:02.656Z,-2.46
2023-02-05T02:48:09.334Z,-2.76
2023-02-05T02:51:18.905Z,-2.62
2023-02-05T02:54:27.821Z,-2.55
2023-02-05T02:57:36.839Z,-2.58
2023-02-05T03:00:46.664Z,-2.75
2023-02-05T03:03:55.976Z,-3.07
2023-02-05T03:07:09.360Z,-3.00
2023-02-05T03:10:23.173Z,-3.07
2023-02-05T03:13:29.548Z,-3.27
2023-02-05T03:16:37.227Z,-3.29
2023-02-05T03:19:43.326Z,-2.78
2023-02-05T03:22:50.169Z,-3.47
2023-02-05T03:25:56.633Z,-3.33
2023-02-05T03:29:06.283Z,-3.04
2023-02-05T03:32:24.898Z,-3.20
2023-02-05T03:35:37.485Z,-3.57
2023-02-05T03:39:10.943Z,-3.28
2023-02-05T03:42:28.817Z,-3.56
2023-02-05T03:45:47.163Z,-3.49
2023-02-05T03:49:07.538Z,-3.39
2023-02-05T03:52:18.805Z,-3.43
2023-02-05T03:55:30.339Z,-3.52
2023-02-05T03:58:39.714Z,-3.62
2023-02-05T04:01:46.813Z,-3.51
2023-02-05T04:04:53.937Z,-3.42
2023-02-05T04:07:59.836Z,-3.65
2023-02-05T04:11:07.442Z,-3.85
2023-02-05T04:14:13.440Z,-3.81
2023-02-05T04:17:19.313Z,-3.78
2023-02-05T04:20:26.690Z,-3.74
2023-02-05T04:23:32.892Z,-3.70
2023-02-05T04:26:38.728Z,-3.73
2023-02-05T04:29:44.936Z,-3.81
2023-02-05T04:32:51.329Z,-4.05
2023-02-05T04:36:01.741Z,-3.93
2023-02-05T04:39:08.373Z,-3.69
2023-02-05T04:42:14.399Z,-4.00
2023-02-05T04:45:20.758Z,-4.03
2023-02-05T04:48:27.210Z,-3.69
2023-02-05T04:51:34.675Z,-3.86
2023-02-05T04:54:40.863Z,-4.06
2023-02-05T04:57:47.342Z,-3.94
2023-02-05T05:00:53.478Z,-3.98
2023-02-05T05:03:59.565Z,-4.06
2023-02-05T05:07:07.060Z,-3.77
2023-02-05T05:10:13.330Z,-3.97
2023-02-05T05:13:19.203Z,-4.01
2023-02-05T05:16:25.151Z,-4.06
2023-02-05T05:19:31.257Z,-3.83
2023-02-05T05:22:38.554Z,-3.84
2023-02-05T05:25:45.059Z,-3.75
2023-02-05T05:28:54.817Z,-3.52
2023-02-05T05:32:00.980Z,-3.61
2023-02-05T05:35:08.423Z,-3.57
2023-02-05T05:38:16.086Z,-3.56
2023-02-05T05:41:41.190Z,-3.71
2023-02-05T05:44:50.234Z,-3.47
2023-02-05T05:47:56.676Z,-3.79
2023-02-05T05:51:02.808Z,-3.86
2023-02-05T05:54:10.568Z,-3.56
2023-02-05T05:57:16.710Z,-3.99
2023-02-05T06:00:23.124Z,-3.78
2023-02-05T06:03:29.054Z,-3.99
2023-02-05T06:06:35.675Z,-3.76
2023-02-05T06:09:43.124Z,-3.53
2023-02-05T06:12:50.474Z,-3.49
2023-02-05T06:15:56.949Z,-3.36
2023-02-05T06:19:03.223Z,-2.88
2023-02-05T06:22:09.324Z,-3.63
2023-02-05T06:25:16.961Z,-3.63
2023-02-05T06:28:23.029Z,-3.50
2023-02-05T06:31:29.347Z,-3.46
2023-02-05T06:34:35.781Z,-3.36
2023-02-05T06:37:49.009Z,-2.99
2023-02-05T06:40:56.572Z,-3.36
2023-02-05T06:44:04.040Z,-3.36
2023-02-05T06:47:10.190Z,-3.24
2023-02-05T06:50:16.225Z,-3.44
2023-02-05T06:53:22.397Z,-3.30
2023-02-05T06:56:29.976Z,-3.39
2023-02-05T06:59:36.519Z,-3.12
2023-02-05T07:02:42.510Z,-2.90
2023-02-05T07:05:48.300Z,-2.81
2023-02-05T07:08:54.744Z,-2.83
2023-02-05T07:12:02.217Z,-3.27
2023-02-05T07:15:09.191Z,-3.18
2023-02-05T07:18:15.334Z,-2.82
2023-02-05T07:21:21.714Z,-3.24
2023-02-05T07:24:27.924Z,-2.42
2023-02-05T07:27:35.578Z,-2.79
2023-02-05T07:30:41.822Z,-2.82
2023-02-05T07:33:48.673Z,-2.81
2023-02-05T07:36:55.106Z,-2.54
2023-02-05T07:40:01.327Z,-2.47
2023-02-05T07:43:08.707Z,-2.58
2023-02-05T07:46:16.632Z,-2.67
2023-02-05T07:49:22.703Z,-2.23
2023-02-05T07:52:28.685Z,-2.77
2023-02-05T07:55:36.424Z,-2.74
2023-02-05T07:58:44.444Z,-2.98
2023-02-05T08:01:50.835Z,-2.83
2023-02-05T08:04:56.772Z,-2.46
2023-02-05T08:08:03.024Z,-2.20
2023-02-05T08:11:09.397Z,-2.36
2023-02-05T08:14:17.019Z,-2.39
2023-02-05T08:17:23.375Z,-1.89
2023-02-05T08:20:29.536Z,-2.39
2023-02-05T08:23:35.943Z,-2.40
2023-02-05T08:26:42.456Z,-1.83
2023-02-05T08:29:50.208Z,-1.56
2023-02-05T08:32:56.594Z,-1.78
2023-02-05T08:36:03.085Z,-1.55
2023-02-05T08:39:09.303Z,-1.77
2023-02-05T08:42:15.876Z,-1.52
2023-02-05T08:45:23.703Z,-1.73
2023-02-05T08:48:29.714Z,-1.90
2023-02-05T08:51:36.880Z,-1.28
2023-02-05T08:54:43.097Z,-1.40
2023-02-05T08:57:49.277Z,-0.96
2023-02-05T09:01:02.720Z,-0.64
2023-02-05T09:04:09.569Z,-0.76
2023-02-05T09:07:15.948Z,-0.45
2023-02-05T09:10:22.201Z,-1.03
2023-02-05T09:13:28.776Z,-0.63
2023-02-05T09:16:36.854Z,-0.26
2023-02-05T09:19:43.214Z,-0.09
2023-02-05T09:22:50.502Z,-0.23
2023-02-05T09:25:59.430Z,0.24
2023-02-05T09:29:05.821Z,0.66
2023-02-05T09:32:13.643Z,1.13
2023-02-05T09:35:20.061Z,1.26
2023-02-05T09:38:26.124Z,1.47
2023-02-05T09:41:42.708Z,1.67
2023-02-05T09:45:04.668Z,1.56
2023-02-05T09:48:46.754Z,1.77
2023-02-05T09:51:58.127Z,1.58
2023-02-05T09:55:16.030Z,1.82
2023-02-05T09:58:27.214Z,1.98
2023-02-05T10:01:44.698Z,2.27
2023-02-05T10:04:54.988Z,2.35
2023-02-05T10:08:13.069Z,0.78
2023-02-05T10:11:28.362Z,1.79
2023-02-05T10:14:49.185Z,1.45
2023-02-05T10:18:07.865Z,1.07
2023-02-05T10:21:30.330Z,1.92
2023-02-05T10:25:05.326Z,1.73
2023-02-05T10:28:33.626Z,1.59
2023-02-05T10:31:43.373Z,1.94
2023-02-05T10:34:57.125Z,2.03
2023-02-05T10:38:12.983Z,2.14
2023-02-05T10:41:26.157Z,2.01
2023-02-05T10:44:36.094Z,1.36
2023-02-05T10:47:58.739Z,1.89
2023-02-05T10:51:07.658Z,2.39
2023-02-05T10:54:22.447Z,1.71
2023-02-05T10:57:35.012Z,1.90
2023-02-05T11:00:41.743Z,1.99
2023-02-05T11:03:55.843Z,1.39
2023-02-05T11:07:06.470Z,2.08
2023-02-05T11:10:19.873Z,1.25
2023-02-05T11:13:28.146Z,2.03
2023-02-05T11:16:40.545Z,1.76
2023-02-05T11:19:55.284Z,2.27
2023-02-05T11:23:16.684Z,1.75
2023-02-05T11:26:25.995Z,1.72
2023-02-05T11:29:32.303Z,2.58
2023-02-05T11:32:39.741Z,2.03
2023-02-05T11:35:53.615Z,1.44
2023-02-05T11:38:59.984Z,1.92
2023-02-05T11:42:18.930Z,2.00
2023-02-05T11:45:27.126Z,2.19
2023-02-05T11:48:39.018Z,2.41
2023-02-05T11:51:48.369Z,2.33
2023-02-05T11:54:55.225Z,2.21
2023-02-05T11:58:05.130Z,2.12
2023-02-05T12:01:24.083Z,2.14
2023-02-05T12:04:48.451Z,1.03
2023-02-05T12:08:00.242Z,0.64
2023-02-05T12:11:24.391Z,1.45
2023-02-05T12:14:41.575Z,1.76
2023-02-05T12:17:55.840Z,0.96
2023-02-05T12:21:14.358Z,1.47
2023-02-05T12:24:57.541Z,1.44
2023-02-05T12:28:26.177Z,1.63
2023-02-05T12:31:48.268Z,1.62
2023-02-05T12:35:07.716Z,1.09
2023-02-05T12:38:32.155Z,2.13
2023-02-05T12:41:47.229Z,1.66
2023-02-05T12:45:16.919Z,1.93
2023-02-05T12:48:47.177Z,1.94
2023-02-05T12:52:15.691Z,2.21
2023-02-05T12:55:38.061Z,2.18
2023-02-05T12:58:48.291Z,1.50
2023-02-05T13:01:59.362Z,1.63
2023-02-05T13:05:17.244Z,1.38
2023-02-05T13:08:37.377Z,1.47
2023-02-05T13:11:52.574Z,1.85
2023-02-05T13:15:14.549Z,1.41
2023-02-05T13:18:27.745Z,1.67
2023-02-05T13:21:53.178Z,1.82
2023-02-05T13:25:27.344Z,1.65
2023-02-05T13:28:43.439Z,1.18
2023-02-05T13:31:53.383Z,1.35
2023-02-05T13:35:00.332Z,1.50
2023-02-05T13:38:32.431Z,1.27
2023-02-05T13:42:06.619Z,1.15
2023-02-05T13:45:35.845Z,1.12
2023-02-05T13:49:06.796Z,1.35
2023-02-05T13:52:48.225Z,0.69
2023-02-05T13:56:36.628Z,1.22
2023-02-05T13:59:51.654Z,0.68
2023-02-05T14:03:05.729Z,1.14
2023-02-05T14:06:24.257Z,1.10
2023-02-05T14:09:39.740Z,0.98
2023-02-05T14:12:47.636Z,0.69
2023-02-05T14:15:57.449Z,0.68
2023-02-05T14:19:16.730Z,0.55
2023-02-05T14:22:38.413Z,0.41
2023-02-05T14:26:11.285Z,0.57
2023-02-05T14:29:42.284Z,0.49
2023-02-05T14:32:59.176Z,0.40
2023-02-05T14:36:34.488Z,0.08
2023-02-05T14:39:40.950Z,0.56
2023-02-05T14:42:47.585Z,0.14
2023-02-05T14:45:56.072Z,0.22
2023-02-05T14:49:04.792Z,-0.18
2023-02-05T14:52:27.200Z,0.04
2023-02-05T14:55:40.378Z,-0.08
2023-02-05T14:58:47.536Z,-0.18
2023-02-05T15:01:55.506Z,-0.07
2023-02-05T15:05:05.305Z,-0.03
2023-02-05T15:08:17.744Z,-0.30
2023-02-05T15:11:35.455Z,-0.12
2023-02-05T15:14:51.620Z,-0.11
2023-02-05T15:18:05.917Z,-0.33
2023-02-05T15:21:18.029Z,-0.40
2023-02-05T15:24:28.016Z,-0.26
2023-02-05T15:27:42.004Z,-0.80
2023-02-05T15:30:55.896Z,-0.59
2023-02-05T15:34:23.004Z,-0.58
2023-02-05T15:37:32.544Z,-0.47
2023-02-05T15:40:43.099Z,-0.61
2023-02-05T15:44:01.039Z,-0.65
2023-02-05T15:47:15.441Z,-0.61
2023-02-05T15:50:23.434Z,-1.13
2023-02-05T15:53:35.473Z,-0.65
2023-02-05T15:56:43.740Z,-0.67
2023-02-05T15:59:51.172Z,-1.15
2023-02-05T16:02:59.181Z,-0.74
2023-02-05T16:06:07.990Z,-0.75
2023-02-05T16:09:18.923Z,-0.71
2023-02-05T16:12:26.239Z,-1.20
2023-02-05T16:15:38.227Z,-1.08
2023-02-05T16:18:51.689Z,-1.21
2023-02-05T16:22:04.454Z,-0.83
2023-02-05T16:25:30.948Z,-0.65
2023-02-05T16:28:43.092Z,-0.91
2023-02-05T16:31:50.438Z,-0.86
2023-02-05T16:34:56.946Z,-1.06
2023-02-05T16:38:09.001Z,-0.98
2023-02-05T16:41:25.838Z,-1.10
2023-02-05T16:44:37.886Z,-1.26
2023-02-05T16:47:44.499Z,-1.23
2023-02-05T16:50:51.506Z,-1.22
2023-02-05T16:54:00.702Z,-1.15
2023-02-05T16:57:12.911Z,-1.61
2023-02-05T17:00:23.688Z,-1.39
2023-02-05T17:03:35.489Z,-1.64
2023-02-05T17:06:42.116Z,-1.47
2023-02-05T17:09:51.272Z,-1.77
2023-02-05T17:13:01.120Z,-1.75
2023-02-05T17:16:28.942Z,-1.73
2023-02-05T17:19:35.606Z,-1.53
2023-02-05T17:23:03.180Z,-2.08
2023-02-05T17:26:11.574Z,-2.10
2023-02-05T17:29:17.937Z,-1.95
2023-02-05T17:32:24.463Z,-2.12
2023-02-05T17:35:32.640Z,-1.84
2023-02-05T17:38:38.932Z,-2.07
2023-02-05T17:42:03.815Z,-2.18
2023-02-05T17:45:18.230Z,-2.17
2023-02-05T17:48:24.317Z,-2.19
2023-02-05T17:51:31.076Z,-1.95
2023-02-05T17:54:37.302Z,-2.53
2023-02-05T17:57:46.135Z,-2.74
2023-02-05T18:00:52.679Z,-2.24
2023-02-05T18:03:59.248Z,-2.28
2023-02-05T18:07:05.832Z,-2.38
2023-02-05T18:10:14.876Z,-2.47
2023-02-05T18:13:23.181Z,-2.52
2023-02-05T18:16:29.714Z,-3.06
2023-02-05T18:19:36.292Z,-2.34
2023-02-05T18:22:42.918Z,-2.20
2023-02-05T18:25:49.278Z,-2.39
2023-02-05T18:28:57.033Z,-2.75
2023-02-05T18:32:03.949Z,-2.58
2023-02-05T18:35:14.582Z,-2.49
2023-02-05T18:38:22.840Z,-2.56
2023-02-05T18:41:29.334Z,-2.64
2023-02-05T18:44:37.349Z,-2.58
2023-02-05T18:47:43.755Z,-2.28
2023-02-05T18:50:50.158Z,-2.55
2023-02-05T18:53:56.583Z,-2.97
2023-02-05T18:57:02.566Z,-2.56
2023-02-05T19:00:11.652Z,-2.93
2023-02-05T19:03:17.696Z,-2.59
2023-02-05T19:06:24.240Z,-2.75
2023-02-05T19:09:31.231Z,-3.15
2023-02-05T19:12:37.517Z,-3.21
2023-02-05T19:15:45.307Z,-2.74
2023-02-05T19:18:51.525Z,-2.67
2023-02-05T19:22:00.173Z,-2.47
2023-02-05T19:25:06.689Z,-2.43
2023-02-05T19:28:12.885Z,-2.47
2023-02-05T19:31:20.440Z,-3.17
2023-02-05T19:34:27.900Z,-2.89
2023-02-05T19:37:33.828Z,-3.29
2023-02-05T19:40:40.061Z,-3.15
2023-02-05T19:43:51.463Z,-3.03
2023-02-05T19:46:58.908Z,-3.25
2023-02-05T19:50:04.983Z,-3.45
2023-02-05T19:53:11.436Z,-3.32
2023-02-05T19:56:20.084Z,-2.82
2023-02-05T19:59:26.499Z,-2.87
2023-02-05T20:02:35.478Z,-2.81
2023-02-05T20:05:41.578Z,-2.90
2023-02-05T20:08:48.292Z,-2.73
2023-02-05T20:11:55.505Z,-3.59
2023-02-05T20:15:01.408Z,-3.66
2023-02-05T20:18:09.231Z,-3.02
2023-02-05T20:21:19.316Z,-3.40
2023-02-05T20:24:25.394Z,-3.23
2023-02-05T20:27:31.320Z,-3.17
2023-02-05T20:30:55.115Z,-3.22
2023-02-05T20:34:03.006Z,-3.13
2023-02-05T20:37:09.736Z,-3.16
2023-02-05T20:40:15.770Z,-3.12
2023-02-05T20:43:21.883Z,-3.28
2023-02-05T20:46:28.621Z,-3.14
2023-02-05T20:49:37.292Z,-3.72
2023-02-05T20:52:43.431Z,-3.52
2023-02-05T20:55:51.280Z,-3.68
2023-02-05T20:59:00.470Z,-3.51
2023-02-05T21:02:07.027Z,-3.42
2023-02-05T21:05:14.615Z,-3.72
2023-02-05T21:08:20.768Z,-3.91
2023-02-05T21:11:31.183Z,-4.19
2023-02-05T21:14:37.415Z,-3.67
2023-02-05T21:17:44.083Z,-3.77
2023-02-05T21:20:52.323Z,-3.54
2023-02-05T21:24:00.336Z,-3.55
2023-02-05T21:27:07.596Z,-3.65
2023-02-05T21:30:14.929Z,-4.09
2023-02-05T21:33:21.559Z,-3.78
2023-02-05T21:36:29.590Z,-3.50
2023-02-05T21:39:37.391Z,-3.66
2023-02-05T21:42:43.665Z,-3.71
2023-02-05T21:45:50.086Z,-3.73
2023-02-05T21:48:57.649Z,-3.62
2023-02-05T21:52:05.834Z,-4.06
2023-02-05T21:55:12.184Z,-4.14
2023-02-05T21:58:18.436Z,-3.89
2023-02-05T22:01:26.620Z,-3.95
2023-02-05T22:04:32.841Z,-4.05
2023-02-05T22:07:40.533Z,-4.23
2023-02-05T22:10:46.864Z,-4.50
2023-02-05T22:13:55.196Z,-4.15
2023-02-05T22:17:01.794Z,-4.15
2023-02-05T22:20:08.593Z,-4.17
2023-02-05T22:23:16.376Z,-4.11
2023-02-05T22:26:24.578Z,-4.76
2023-02-05T22:29:31.140Z,-4.57
2023-02-05T22:32:37.414Z,-4.07
2023-02-05T22:35:43.669Z,-4.40
2023-02-05T22:38:52.203Z,-4.62
2023-02-05T22:41:58.580Z,-4.64
2023-02-05T22:45:05.029Z,-4.34
2023-02-05T22:48:11.327Z,-4.36
2023-02-05T22:51:21.056Z,-4.87
2023-02-05T22:54:28.730Z,-4.49
2023-02-05T22:57:34.876Z,-4.69
2023-02-05T23:00:41.046Z,-4.65
2023-02-05T23:03:49.426Z,-4.76
2023-02-05T23:06:55.904Z,-4.78
2023-02-05T23:10:03.644Z,-4.83
2023-02-05T23:13:10.075Z,-4.63
2023-02-05T23:16:18.531Z,-4.60
2023-02-05T23:19:24.978Z,-4.89
2023-02-05T23:22:32.573Z,-5.12
2023-02-05T23:25:40.713Z,-4.90
2023-02-05T23:28:46.866Z,-4.87
2023-02-05T23:31:52.978Z,-4.81
2023-02-05T23:34:59.610Z,-5.00
2023-02-05T23:38:06.076Z,-5.13
2023-02-05T23:41:14.220Z,-4.95
2023-02-05T23:44:21.376Z,-5.31
2023-02-05T23:47:27.638Z,-5.33
2023-02-05T23:50:33.794Z,-5.53
2023-02-05T23:53:39.837Z,-5.68
2023-02-05T23:56:47.769Z,-5.32
2023-02-05T23:59:54.208Z,-5.92
